KGCY/GCY METAR and TAF weather

Enter ICAO airport designator
Station Type Date Time Source
KGCY METAR 2022/05/23 14:15 UTC NOAA

KGCY 231415Z AUTO 00000KT 2 1/2SM BR FEW006 SCT030 SCT046 19/18 A3017 RMK A01


Station Type Date Time Source
KGCY Decoded METAR 2022/05/23 14:15 UTC NOAA

Station name not available
May 23, 2022 - 10:15 AM EDT / 2022.05.23 1415 UTC
Wind: Calm:0
Visibility: 2 1/2 mile(s):0
Sky conditions: partly cloudy
Weather: mist
Temperature: 66 F (19 C)
Dew Point: 64 F (18 C)
Relative Humidity: 93%
Pressure (altimeter): 30.17 in. Hg (1021 hPa)
ob: KGCY 231415Z AUTO 00000KT 2 1/2SM BR FEW006 SCT030 SCT046 19/18 A3017 RMK A01
cycle: 14

Station Type Date Time Source
KGCY TAF UTC NOAA

Error!

Example: see airport list